Time;durP1;ratioP1;P1;durP2;ratioP2;P2;SDS_P1;SDS_P2;PMS_P1;PMS_P2;Temp;Humidity;BMP_temperature;BMP_pressure;BME280_temperature;BME280_humidity;BME280_pressure;Samples;Min_cycle;Max_cycle;Signal;HPM_P1;HPM_P2
2021/08/10 00:02:01;;;;;;;0.75;0.75;;;26.20;48.30;;;;;;5045597;28;20072;-51
2021/08/10 00:04:28;;;;;;;1.10;0.40;;;26.20;48.30;;;;;;5046128;28;20120;-54
2021/08/10 00:06:55;;;;;;;0.40;0.30;;;26.20;48.30;;;;;;5046568;28;20479;-54
2021/08/10 00:09:23;;;;;;;1.08;0.30;;;26.20;48.30;;;;;;5037992;28;20085;-50
2021/08/10 00:11:50;;;;;;;0.73;0.25;;;26.10;48.30;;;;;;5034072;28;20045;-54
2021/08/10 00:14:18;;;;;;;1.13;0.20;;;26.10;48.30;;;;;;5033532;28;20049;-50
2021/08/10 00:16:45;;;;;;;0.93;0.22;;;26.10;48.30;;;;;;5029569;28;20112;-51
2021/08/10 00:19:14;;;;;;;1.10;0.40;;;26.20;48.40;;;;;;5048292;28;20045;-53
2021/08/10 00:21:41;;;;;;;0.65;0.32;;;26.10;48.40;;;;;;5049366;28;20156;-53
2021/08/10 00:24:08;;;;;;;1.40;0.47;;;26.10;48.40;;;;;;5049295;28;20171;-55
2021/08/10 00:26:35;;;;;;;0.30;0.30;;;26.10;48.40;;;;;;5049041;28;20128;-53
2021/08/10 00:29:03;;;;;;;0.90;0.40;;;26.10;48.40;;;;;;5049230;28;20045;-54
2021/08/10 00:31:31;;;;;;;1.05;0.20;;;26.10;48.40;;;;;;5048934;28;20029;-53
2021/08/10 00:34:02;;;;;;;1.25;0.40;;;26.10;48.50;;;;;;5035744;28;20052;-51
2021/08/10 00:36:31;;;;;;;0.60;0.28;;;26.10;48.50;;;;;;5038346;28;20053;-52
2021/08/10 00:38:58;;;;;;;3.05;0.50;;;26.10;48.50;;;;;;5040122;28;20033;-54
2021/08/10 00:41:26;;;;;;;0.45;0.15;;;26.10;48.50;;;;;;5043911;28;20073;-50
2021/08/10 00:43:56;;;;;;;1.15;0.20;;;26.10;48.60;;;;;;5031061;28;20044;-49
2021/08/10 00:46:26;;;;;;;0.45;0.22;;;26.10;48.50;;;;;;5047473;28;20518;-51
2021/08/10 00:48:54;;;;;;;0.20;0.20;;;26.10;48.60;;;;;;5047725;28;20048;-50
2021/08/10 00:51:23;;;;;;;1.48;0.32;;;26.10;48.60;;;;;;5046696;28;20489;-54
2021/08/10 00:54:05;;;;;;;1.40;0.30;;;26.10;48.60;;;;;;5042364;28;20069;-51
2021/08/10 00:56:33;;;;;;;1.10;0.63;;;26.10;48.60;;;;;;5036053;28;20111;-52
2021/08/10 00:59:00;;;;;;;0.80;0.30;;;26.10;48.60;;;;;;5046416;28;20040;-53
2021/08/10 01:01:31;;;;;;;1.35;0.30;;;26.10;49.30;;;;;;5049558;28;20526;-52
2021/08/10 01:03:58;;;;;;;0.82;0.57;;;26.10;48.70;;;;;;5042647;28;20095;-52
2021/08/10 01:06:34;;;;;;;0.60;0.43;;;26.10;48.70;;;;;;5037953;28;20096;-55
2021/08/10 01:09:09;;;;;;;0.40;0.30;;;26.10;48.70;;;;;;5032028;28;20191;-55
2021/08/10 01:11:45;;;;;;;1.08;0.70;;;26.10;48.70;;;;;;5037004;28;20634;-51
2021/08/10 01:14:21;;;;;;;1.10;0.40;;;26.10;48.70;;;;;;5048133;28;20510;-53
2021/08/10 01:16:54;;;;;;;1.45;0.52;;;26.10;48.80;;;;;;5047128;28;20033;-55
2021/08/10 01:20:02;;;;;;;0.30;0.30;;;26.00;48.70;;;;;;5040383;28;20115;-54
2021/08/10 01:22:34;;;;;;;0.30;0.20;;;26.10;48.80;;;;;;4965626;28;20062;-51
2021/08/10 01:25:12;;;;;;;0.50;0.50;;;26.10;48.90;;;;;;4948826;28;20059;-51
2021/08/10 01:27:57;;;;;;;0.30;0.30;;;26.10;48.90;;;;;;4963050;28;20053;-54
2021/08/10 01:30:32;;;;;;;0.30;0.20;;;26.00;48.90;;;;;;4947109;28;20133;-52
2021/08/10 01:33:05;;;;;;;0.67;0.43;;;26.00;48.90;;;;;;4946122;28;20047;-50
2021/08/10 01:35:34;;;;;;;0.38;0.20;;;26.00;48.90;;;;;;4963937;28;20318;-55
2021/08/10 01:38:03;;;;;;;0.25;0.20;;;26.00;49.00;;;;;;4946997;28;20141;-52
2021/08/10 01:40:32;;;;;;;1.10;0.35;;;26.00;49.00;;;;;;4950515;28;20043;-51
2021/08/10 01:43:04;;;;;;;0.22;0.20;;;26.00;49.10;;;;;;4966165;28;20683;-52
2021/08/10 01:45:37;;;;;;;0.38;0.30;;;26.10;49.20;;;;;;4946969;28;20839;-48
2021/08/10 01:48:09;;;;;;;0.75;0.20;;;26.00;49.10;;;;;;4963135;28;20134;-50
2021/08/10 01:50:38;;;;;;;0.63;0.45;;;26.00;49.20;;;;;;4946533;28;20039;-48
2021/08/10 01:53:11;;;;;;;1.05;0.40;;;26.00;49.20;;;;;;4945886;28;20078;-50
2021/08/10 01:55:40;;;;;;;0.73;0.55;;;26.00;49.30;;;;;;4948064;28;20051;-53
2021/08/10 01:58:17;;;;;;;1.10;0.28;;;26.00;49.40;;;;;;4994145;28;20098;-52
2021/08/10 02:00:46;;;;;;;0.65;0.25;;;26.00;49.40;;;;;;5042519;28;20053;-53
2021/08/10 02:03:17;;;;;;;0.22;0.22;;;26.00;49.40;;;;;;5040183;28;20127;-53
2021/08/10 02:05:52;;;;;;;0.50;0.50;;;26.00;49.50;;;;;;5045861;28;20054;-50
2021/08/10 02:08:28;;;;;;;0.20;0.20;;;26.00;49.50;;;;;;5041684;28;20049;-54
2021/08/10 02:10:57;;;;;;;0.43;0.20;;;26.00;49.60;;;;;;5044749;28;20446;-55
2021/08/10 02:13:29;;;;;;;2.22;0.15;;;26.00;49.60;;;;;;5045905;28;20068;-55
2021/08/10 02:15:56;;;;;;;0.40;0.38;;;26.00;49.70;;;;;;5045265;28;20045;-54
2021/08/10 02:18:26;;;;;;;1.67;1.17;;;26.00;49.70;;;;;;5044887;28;20037;-51
2021/08/10 02:21:07;;;;;;;0.45;0.20;;;26.00;49.80;;;;;;5045163;28;20045;-48
2021/08/10 02:23:37;;;;;;;0.68;0.10;;;25.90;49.80;;;;;;5043276;28;20422;-49
2021/08/10 02:26:06;;;;;;;2.03;0.30;;;25.90;49.90;;;;;;5031142;28;20036;-52
2021/08/10 02:28:35;;;;;;;1.02;0.10;;;26.00;50.00;;;;;;5046522;28;20041;-51
2021/08/10 02:31:05;;;;;;;1.05;0.55;;;25.90;49.90;;;;;;5045758;28;20045;-51
2021/08/10 02:33:39;;;;;;;0.38;0.20;;;25.90;50.00;;;;;;5035512;28;20041;-55
2021/08/10 02:36:12;;;;;;;0.50;0.17;;;26.00;50.20;;;;;;5032400;28;20091;-52
2021/08/10 02:38:43;;;;;;;1.85;0.10;;;25.90;50.10;;;;;;5043254;28;20053;-53
2021/08/10 02:41:11;;;;;;;0.40;0.25;;;25.90;50.10;;;;;;5046257;28;20171;-55
2021/08/10 02:43:49;;;;;;;1.05;0.20;;;25.90;50.20;;;;;;5028602;28;20041;-52
2021/08/10 02:46:16;;;;;;;1.17;0.10;;;25.90;50.30;;;;;;5046094;28;20048;-52
2021/08/10 02:48:45;;;;;;;1.65;0.20;;;25.90;50.30;;;;;;5035235;28;20049;-50
2021/08/10 02:51:13;;;;;;;1.38;0.57;;;25.90;50.40;;;;;;5038057;28;20643;-54
2021/08/10 02:53:41;;;;;;;0.30;0.30;;;25.90;50.40;;;;;;5034645;28;20148;-51
2021/08/10 02:56:15;;;;;;;0.35;0.20;;;25.90;50.50;;;;;;5032140;28;20586;-49
2021/08/10 02:58:51;;;;;;;0.80;0.63;;;25.90;50.50;;;;;;5044961;28;20045;-52
2021/08/10 03:01:21;;;;;;;0.45;0.30;;;25.90;50.60;;;;;;5045885;28;20052;-55
2021/08/10 03:03:56;;;;;;;0.47;0.22;;;25.90;50.70;;;;;;5045228;28;20044;-52
2021/08/10 03:06:25;;;;;;;0.20;0.20;;;25.90;50.70;;;;;;5042928;28;20103;-54
2021/08/10 03:09:00;;;;;;;0.90;0.20;;;25.90;50.80;;;;;;5040999;28;20181;-54
2021/08/10 03:11:33;;;;;;;0.65;0.20;;;25.90;50.90;;;;;;5012440;28;20836;-52
2021/08/10 03:14:02;;;;;;;0.63;0.20;;;25.90;50.90;;;;;;5044878;28;20417;-53
2021/08/10 03:16:32;;;;;;;0.43;0.13;;;25.80;50.90;;;;;;5044989;28;20052;-54
2021/08/10 03:19:04;;;;;;;1.33;0.47;;;25.90;51.00;;;;;;5061292;28;20519;-51
2021/08/10 03:21:33;;;;;;;1.05;0.20;;;25.80;51.00;;;;;;5061253;28;20052;-54
2021/08/10 03:24:03;;;;;;;0.50;0.17;;;25.90;51.10;;;;;;5041264;28;20069;-51
2021/08/10 03:26:32;;;;;;;0.70;0.40;;;25.80;51.10;;;;;;5033313;28;20041;-51
2021/08/10 03:29:01;;;;;;;2.53;0.43;;;25.80;51.10;;;;;;5044374;28;20041;-52
2021/08/10 03:31:30;;;;;;;0.57;0.20;;;25.90;51.20;;;;;;5028812;28;20045;-52
2021/08/10 03:33:57;;;;;;;1.05;0.20;;;25.90;51.20;;;;;;5045933;28;20052;-49
2021/08/10 03:36:27;;;;;;;1.85;0.38;;;25.80;51.20;;;;;;5045594;28;20502;-54
2021/08/10 03:38:56;;;;;;;2.67;0.40;;;25.80;51.30;;;;;;5041752;28;20033;-51
2021/08/10 03:41:27;;;;;;;2.17;0.20;;;25.80;51.30;;;;;;5033107;28;20216;-52
2021/08/10 03:43:55;;;;;;;1.10;0.30;;;25.80;51.40;;;;;;5060495;28;20098;-52
2021/08/10 03:46:22;;;;;;;0.40;0.20;;;25.80;51.40;;;;;;5045571;28;20370;-50
2021/08/10 03:48:51;;;;;;;0.20;0.10;;;25.80;51.40;;;;;;5048880;28;20051;-51
2021/08/10 03:51:19;;;;;;;0.85;0.30;;;25.80;51.40;;;;;;5043985;28;20045;-49
2021/08/10 03:53:48;;;;;;;0.32;0.10;;;25.80;51.50;;;;;;5042904;28;20047;-48
2021/08/10 03:56:23;;;;;;;1.00;0.20;;;25.80;51.50;;;;;;5035585;28;20423;-51
2021/08/10 03:58:53;;;;;;;0.77;0.20;;;25.80;51.60;;;;;;5048566;28;20845;-48
2021/08/10 04:01:25;;;;;;;0.30;0.20;;;25.80;51.60;;;;;;5049410;28;20735;-52
2021/08/10 04:03:56;;;;;;;0.25;0.25;;;25.80;51.60;;;;;;5037026;28;20080;-54
2021/08/10 04:06:24;;;;;;;0.30;0.20;;;25.80;51.70;;;;;;5044008;28;20605;-53
2021/08/10 04:08:53;;;;;;;1.92;0.25;;;25.80;51.70;;;;;;5049157;28;20077;-53
2021/08/10 04:11:21;;;;;;;0.40;0.40;;;25.80;51.70;;;;;;5049217;28;20065;-51
2021/08/10 04:13:51;;;;;;;0.30;0.20;;;25.80;51.70;;;;;;5048021;28;20067;-50
2021/08/10 04:16:20;;;;;;;0.20;0.15;;;25.80;51.70;;;;;;5048860;28;20056;-47
2021/08/10 04:18:49;;;;;;;0.73;0.38;;;25.80;51.80;;;;;;5036539;28;20515;-48
2021/08/10 04:21:20;;;;;;;1.02;0.95;;;25.80;51.80;;;;;;5033520;28;20053;-49
2021/08/10 04:23:47;;;;;;;0.47;0.20;;;25.80;51.80;;;;;;5040318;28;20049;-52
2021/08/10 04:26:15;;;;;;;0.20;0.10;;;25.80;51.90;;;;;;5049070;28;20084;-50
2021/08/10 04:28:42;;;;;;;0.93;0.47;;;25.70;51.80;;;;;;5047657;28;20049;-49
2021/08/10 04:31:10;;;;;;;0.68;0.20;;;25.80;51.90;;;;;;5048509;28;20505;-50
2021/08/10 04:33:37;;;;;;;2.35;0.20;;;25.80;51.90;;;;;;5047069;28;20060;-50
2021/08/10 04:36:06;;;;;;;0.30;0.10;;;25.70;52.40;;;;;;5048390;28;20485;-53
2021/08/10 04:38:34;;;;;;;0.90;0.55;;;25.80;51.90;;;;;;5046479;28;20147;-49
2021/08/10 04:41:02;;;;;;;0.38;0.20;;;25.80;51.90;;;;;;5030012;28;20083;-51
2021/08/10 04:43:49;;;;;;;1.35;0.10;;;25.70;51.90;;;;;;5048683;28;20159;-53
2021/08/10 04:46:16;;;;;;;0.75;0.20;;;25.70;51.90;;;;;;5034638;28;20047;-51
2021/08/10 04:48:43;;;;;;;0.80;0.20;;;25.70;52.00;;;;;;5046078;28;20041;-53
2021/08/10 04:51:13;;;;;;;0.30;0.10;;;25.70;52.00;;;;;;5040501;28;20048;-52
2021/08/10 04:53:41;;;;;;;0.50;0.17;;;25.70;52.10;;;;;;5034651;28;20502;-51
2021/08/10 04:56:09;;;;;;;1.65;0.20;;;25.70;52.10;;;;;;5034460;28;20119;-49
2021/08/10 04:58:36;;;;;;;0.50;0.20;;;25.70;52.10;;;;;;5031328;28;20052;-49
2021/08/10 05:01:05;;;;;;;0.40;0.28;;;25.70;52.10;;;;;;5034459;28;20392;-52
2021/08/10 05:03:35;;;;;;;0.65;0.13;;;25.70;52.10;;;;;;5041499;28;20051;-50
2021/08/10 05:06:05;;;;;;;0.22;0.10;;;25.70;52.20;;;;;;5041613;28;20060;-51
2021/08/10 05:08:32;;;;;;;0.25;0.10;;;25.70;52.20;;;;;;5037402;28;20057;-51
2021/08/10 05:11:01;;;;;;;0.68;0.13;;;25.70;52.20;;;;;;5061011;28;20049;-49
2021/08/10 05:13:29;;;;;;;0.43;0.10;;;25.70;52.20;;;;;;5049669;28;20041;-46
2021/08/10 05:15:56;;;;;;;2.30;0.30;;;25.70;52.20;;;;;;5044283;28;20404;-47
2021/08/10 05:18:27;;;;;;;1.38;0.45;;;25.70;52.20;;;;;;5053727;28;20077;-49
2021/08/10 05:20:56;;;;;;;0.22;0.20;;;25.70;52.30;;;;;;5038837;28;20044;-50
2021/08/10 05:23:23;;;;;;;0.40;0.20;;;25.70;52.80;;;;;;5042995;28;20041;-48
2021/08/10 05:25:51;;;;;;;0.63;0.20;;;25.70;52.30;;;;;;5045811;28;20130;-51
2021/08/10 05:28:18;;;;;;;0.88;0.30;;;25.70;52.30;;;;;;5047399;28;20049;-49
2021/08/10 05:30:47;;;;;;;0.45;0.45;;;25.70;52.30;;;;;;5034501;28;20053;-50
2021/08/10 05:33:14;;;;;;;0.20;0.10;;;25.60;52.30;;;;;;5041385;28;20414;-49
2021/08/10 05:35:43;;;;;;;0.30;0.20;;;25.70;52.40;;;;;;5044441;28;20148;-46
2021/08/10 05:38:10;;;;;;;0.70;0.30;;;25.70;52.40;;;;;;5044992;28;20038;-47
2021/08/10 05:40:40;;;;;;;0.63;0.30;;;25.70;52.40;;;;;;5029986;28;20096;-48
2021/08/10 05:43:08;;;;;;;1.98;0.77;;;25.70;52.40;;;;;;5047048;28;20807;-52
2021/08/10 05:45:36;;;;;;;1.40;0.57;;;25.70;52.50;;;;;;5042384;28;20061;-50
2021/08/10 05:48:06;;;;;;;3.03;1.27;;;25.70;52.50;;;;;;5036748;28;20055;-51
2021/08/10 05:50:33;;;;;;;4.00;1.33;;;25.70;52.60;;;;;;5047182;28;20037;-52
2021/08/10 05:53:01;;;;;;;2.13;1.63;;;25.70;52.60;;;;;;5045466;28;20120;-50
2021/08/10 05:55:28;;;;;;;1.00;1.00;;;25.70;52.60;;;;;;5049384;28;20049;-49
2021/08/10 05:57:55;;;;;;;1.30;1.20;;;25.60;52.50;;;;;;5034303;28;20064;-52
2021/08/10 06:00:23;;;;;;;2.78;1.63;;;25.70;52.70;;;;;;5042626;28;20068;-52
2021/08/10 06:02:58;;;;;;;;;;;25.60;52.60;;;;;;5046084;28;20036;-55
2021/08/10 06:05:27;;;;;;;1.27;1.17;;;25.60;52.50;;;;;;5045463;28;19924;-54
2021/08/10 06:07:56;;;;;;;2.50;1.73;;;25.60;52.80;;;;;;5029032;28;20114;-52
2021/08/10 06:10:27;;;;;;;1.35;1.25;;;25.60;52.80;;;;;;5050361;28;20116;-51
2021/08/10 06:12:55;;;;;;;1.77;1.10;;;25.60;52.80;;;;;;5050408;28;20060;-52
2021/08/10 06:15:22;;;;;;;3.58;1.40;;;25.70;52.90;;;;;;5035279;28;20144;-51
2021/08/10 06:17:52;;;;;;;0.60;0.60;;;25.70;52.90;;;;;;5030242;28;20107;-54
2021/08/10 06:20:20;;;;;;;0.88;0.88;;;25.70;52.90;;;;;;5032846;28;20061;-53
2021/08/10 06:22:47;;;;;;;1.27;0.80;;;25.70;52.90;;;;;;5045402;28;20047;-50
2021/08/10 06:25:17;;;;;;;2.50;1.00;;;25.70;52.90;;;;;;5046859;28;20565;-51
2021/08/10 06:27:49;;;;;;;3.20;0.68;;;25.60;52.80;;;;;;5034317;28;20045;-49
2021/08/10 06:30:16;;;;;;;1.27;0.80;;;25.70;53.50;;;;;;5041857;28;20060;-50
2021/08/10 06:32:43;;;;;;;2.22;1.10;;;25.70;52.90;;;;;;5043830;28;20046;-51
2021/08/10 06:35:17;;;;;;;1.83;0.93;;;25.70;53.00;;;;;;5061768;28;20592;-50
2021/08/10 06:37:45;;;;;;;0.63;0.63;;;25.70;53.00;;;;;;5046323;28;23386;-50
2021/08/10 06:40:13;;;;;;;1.10;0.50;;;25.70;53.00;;;;;;5046311;28;20041;-52
2021/08/10 06:42:45;;;;;;;0.70;0.57;;;25.70;53.00;;;;;;5044562;28;20049;-51
2021/08/10 06:45:13;;;;;;;0.60;0.60;;;25.70;53.00;;;;;;5040189;28;20120;-53
2021/08/10 06:47:42;;;;;;;0.65;0.32;;;25.70;53.00;;;;;;5035213;28;20151;-51
2021/08/10 06:50:11;;;;;;;3.25;1.20;;;25.70;53.00;;;;;;5046326;28;20048;-54
2021/08/10 06:52:38;;;;;;;1.67;0.43;;;25.80;53.10;;;;;;5046680;28;20518;-55
2021/08/10 06:55:06;;;;;;;4.82;0.73;;;25.70;53.00;;;;;;5045627;28;20585;-54
2021/08/10 06:57:34;;;;;;;2.60;0.47;;;25.70;53.00;;;;;;5036612;28;20088;-52
2021/08/10 07:00:02;;;;;;;2.47;0.47;;;25.70;53.00;;;;;;5039025;28;20049;-52
2021/08/10 07:02:31;;;;;;;2.55;0.55;;;25.70;53.00;;;;;;5040986;28;20099;-54
2021/08/10 07:04:59;;;;;;;2.17;1.40;;;25.70;53.10;;;;;;5045178;28;20042;-55
2021/08/10 07:07:27;;;;;;;3.03;0.50;;;25.80;53.10;;;;;;5029147;28;20084;-55
2021/08/10 07:09:55;;;;;;;2.95;0.57;;;25.80;53.20;;;;;;5035812;28;20057;-50
2021/08/10 07:12:22;;;;;;;3.40;0.60;;;25.80;53.20;;;;;;5040520;28;20044;-51
2021/08/10 07:14:50;;;;;;;0.73;0.70;;;25.80;53.20;;;;;;5041661;28;20052;-53
2021/08/10 07:17:22;;;;;;;3.20;0.50;;;25.80;53.20;;;;;;5031500;28;20053;-50
2021/08/10 07:19:54;;;;;;;3.90;0.47;;;25.80;53.20;;;;;;5028614;28;20041;-51
2021/08/10 07:22:24;;;;;;;2.20;0.47;;;25.80;53.30;;;;;;5042457;28;20044;-50
2021/08/10 07:24:51;;;;;;;1.15;0.40;;;25.80;53.30;;;;;;5050385;28;20042;-51
2021/08/10 07:27:19;;;;;;;1.00;0.38;;;25.90;53.30;;;;;;5041377;28;20037;-51
2021/08/10 07:29:46;;;;;;;1.38;0.50;;;25.80;53.30;;;;;;5047890;28;20095;-51
2021/08/10 07:32:14;;;;;;;0.75;0.40;;;25.90;53.30;;;;;;5047747;28;20037;-51
2021/08/10 07:34:46;;;;;;;2.05;0.70;;;25.80;53.20;;;;;;5032838;28;20450;-46
2021/08/10 07:37:15;;;;;;;2.65;0.30;;;25.80;53.20;;;;;;5049821;28;20045;-52
2021/08/10 07:39:43;;;;;;;0.73;0.30;;;25.80;53.20;;;;;;5048286;28;20116;-50
2021/08/10 07:42:10;;;;;;;0.90;0.60;;;25.80;53.20;;;;;;5044178;28;20507;-53
2021/08/10 07:44:37;;;;;;;2.63;0.45;;;25.90;53.20;;;;;;5038056;28;20152;-53
2021/08/10 07:47:06;;;;;;;3.20;1.17;;;25.90;53.20;;;;;;5049506;28;20059;-50
2021/08/10 07:49:34;;;;;;;4.03;1.33;;;25.90;53.20;;;;;;5049691;28;20037;-55
2021/08/10 07:52:01;;;;;;;3.40;1.48;;;25.90;53.20;;;;;;5036992;28;20042;-51
2021/08/10 07:54:30;;;;;;;1.70;1.60;;;25.90;53.20;;;;;;5038782;28;20136;-54
2021/08/10 07:56:59;;;;;;;2.30;2.10;;;25.90;53.20;;;;;;5040408;28;20048;-55
2021/08/10 07:59:27;;;;;;;3.03;2.30;;;25.90;53.10;;;;;;5048228;28;20430;-52
2021/08/10 08:01:55;;;;;;;1.80;1.70;;;25.90;53.10;;;;;;5031362;28;20068;-54
2021/08/10 08:04:22;;;;;;;2.10;2.00;;;25.90;53.10;;;;;;5045136;28;20049;-53
2021/08/10 08:06:49;;;;;;;4.32;1.60;;;25.90;53.10;;;;;;5036798;28;20107;-55
2021/08/10 08:09:16;;;;;;;4.55;1.85;;;25.90;53.10;;;;;;5042963;28;20127;-52
2021/08/10 08:11:46;;;;;;;2.08;1.88;;;25.90;53.10;;;;;;5045296;28;20049;-52
2021/08/10 08:14:19;;;;;;;1.63;1.33;;;26.00;53.10;;;;;;5036229;28;20048;-49
2021/08/10 08:16:47;;;;;;;2.75;1.80;;;26.00;53.10;;;;;;5031764;28;20037;-52
2021/08/10 08:19:15;;;;;;;1.55;1.52;;;26.00;53.10;;;;;;5048916;28;20061;-49
2021/08/10 08:21:42;;;;;;;2.88;1.20;;;26.00;53.10;;;;;;5047619;28;20131;-53
2021/08/10 08:24:10;;;;;;;1.33;1.23;;;26.00;53.10;;;;;;5047695;28;20037;-53
2021/08/10 08:26:37;;;;;;;1.98;1.15;;;26.00;53.10;;;;;;5045346;28;20045;-51
2021/08/10 08:29:05;;;;;;;2.10;1.30;;;26.00;53.00;;;;;;5047732;28;20056;-54
2021/08/10 08:31:34;;;;;;;1.00;0.88;;;26.10;53.10;;;;;;5050627;28;20091;-48
2021/08/10 08:34:04;;;;;;;2.90;0.98;;;26.10;53.10;;;;;;5035634;28;20049;-52
2021/08/10 08:36:32;;;;;;;3.70;1.27;;;26.10;53.10;;;;;;5038881;28;20432;-50
2021/08/10 08:38:59;;;;;;;5.03;1.33;;;26.10;53.10;;;;;;5039571;28;20053;-50
2021/08/10 08:41:28;;;;;;;2.42;1.38;;;26.10;53.00;;;;;;5047577;28;20049;-49
2021/08/10 08:43:55;;;;;;;4.60;0.77;;;26.10;53.00;;;;;;5030602;28;20068;-51
2021/08/10 08:46:26;;;;;;;3.63;1.60;;;26.10;53.00;;;;;;5061059;28;20049;-52
2021/08/10 08:48:56;;;;;;;2.20;1.58;;;26.10;53.00;;;;;;5064440;28;20643;-55
2021/08/10 08:51:25;;;;;;;4.75;1.25;;;26.20;53.10;;;;;;5047122;28;20516;-51
2021/08/10 08:53:55;;;;;;;2.47;1.15;;;26.20;53.00;;;;;;5043854;28;20033;-53
2021/08/10 08:56:28;;;;;;;4.47;0.85;;;26.20;53.00;;;;;;5034496;28;20606;-54
2021/08/10 08:58:59;;;;;;;5.50;1.73;;;26.20;53.00;;;;;;5031422;28;20144;-53
2021/08/10 09:01:30;;;;;;;4.97;0.70;;;26.20;53.00;;;;;;5050581;28;20438;-51
2021/08/10 09:03:58;;;;;;;2.90;1.65;;;26.20;53.00;;;;;;5046783;28;20613;-52
2021/08/10 09:06:26;;;;;;;2.33;0.50;;;26.20;52.90;;;;;;5038707;28;20046;-53
2021/08/10 09:08:55;;;;;;;2.45;0.63;;;26.20;53.00;;;;;;5033453;28;20111;-51
2021/08/10 09:11:24;;;;;;;2.72;1.15;;;26.20;52.90;;;;;;5035120;28;20048;-52
2021/08/10 09:13:57;;;;;;;1.60;0.40;;;26.30;53.00;;;;;;5046966;28;20048;-55
2021/08/10 09:16:25;;;;;;;0.70;0.65;;;26.30;53.00;;;;;;5047891;28;20069;-52
2021/08/10 09:18:54;;;;;;;1.75;0.40;;;26.30;52.90;;;;;;5043982;28;20041;-51
2021/08/10 09:21:24;;;;;;;0.75;0.50;;;26.30;52.90;;;;;;5039097;28;20061;-50
2021/08/10 09:24:00;;;;;;;0.57;0.40;;;26.30;52.90;;;;;;5039366;28;20036;-54
2021/08/10 09:26:39;;;;;;;0.93;0.50;;;26.30;52.90;;;;;;5058912;28;20479;-50
2021/08/10 09:29:10;;;;;;;0.68;0.50;;;26.40;52.80;;;;;;5046574;28;20037;-53
2021/08/10 09:31:41;;;;;;;0.75;0.28;;;26.30;52.70;;;;;;5048803;28;20151;-54
2021/08/10 09:34:21;;;;;;;1.58;0.52;;;26.30;52.70;;;;;;5046650;28;20055;-51
2021/08/10 09:36:49;;;;;;;1.50;0.20;;;26.40;52.80;;;;;;5046338;28;20045;-53
2021/08/10 09:39:27;;;;;;;1.40;0.38;;;26.40;52.70;;;;;;5046395;28;20037;-54
2021/08/10 09:42:02;;;;;;;1.95;0.50;;;26.40;52.70;;;;;;5046437;28;20041;-50
2021/08/10 09:44:30;;;;;;;2.08;0.40;;;26.40;52.70;;;;;;5043072;28;20053;-52
2021/08/10 09:46:57;;;;;;;1.17;0.52;;;26.40;52.60;;;;;;5047505;28;20128;-53
2021/08/10 09:49:43;;;;;;;3.45;0.32;;;26.40;52.50;;;;;;5051491;28;20037;-53
2021/08/10 09:52:24;;;;;;;2.42;0.40;;;26.40;52.50;;;;;;5030671;28;20404;-51
2021/08/10 09:54:52;;;;;;;1.95;0.47;;;26.40;52.50;;;;;;5042629;28;20068;-52
2021/08/10 09:57:19;;;;;;;1.50;0.35;;;26.40;52.50;;;;;;5054536;28;20124;-52
2021/08/10 09:59:48;;;;;;;1.75;0.45;;;26.40;52.40;;;;;;5047004;28;20040;-48
2021/08/10 10:02:19;;;;;;;1.00;0.45;;;26.50;52.50;;;;;;5044968;28;20045;-51
2021/08/10 10:04:53;;;;;;;1.65;0.25;;;26.50;52.40;;;;;;5045628;28;20048;-52
2021/08/10 10:07:22;;;;;;;1.40;0.40;;;26.50;52.40;;;;;;5046968;28;20614;-53
2021/08/10 10:10:02;;;;;;;1.83;0.47;;;26.40;52.30;;;;;;5050544;28;20057;-50
2021/08/10 10:12:36;;;;;;;2.80;0.30;;;26.50;52.40;;;;;;5047296;28;20045;-51
2021/08/10 10:15:03;;;;;;;0.73;0.32;;;26.50;52.30;;;;;;5040829;28;20541;-53
2021/08/10 10:17:33;;;;;;;1.38;0.32;;;26.50;52.20;;;;;;5035685;28;20113;-48
2021/08/10 10:20:01;;;;;;;0.55;0.32;;;26.50;52.20;;;;;;5031439;28;20617;-51
2021/08/10 10:22:32;;;;;;;1.35;0.90;;;26.50;52.20;;;;;;5047082;28;20072;-48
2021/08/10 10:25:02;;;;;;;3.90;0.93;;;26.60;52.20;;;;;;5047045;28;20533;-48
2021/08/10 10:27:30;;;;;;;3.30;0.20;;;26.50;52.20;;;;;;5046528;28;20052;-52
2021/08/10 10:29:57;;;;;;;1.30;0.17;;;26.60;52.10;;;;;;5046411;28;20060;-51
2021/08/10 10:32:26;;;;;;;3.72;0.32;;;26.60;52.10;;;;;;5046506;28;20037;-51
2021/08/10 10:34:53;;;;;;;0.60;0.20;;;26.60;52.00;;;;;;5030606;28;20041;-54
2021/08/10 10:37:24;;;;;;;2.35;0.50;;;26.60;52.00;;;;;;5043516;28;20052;-51
2021/08/10 10:39:57;;;;;;;0.85;0.32;;;26.60;52.00;;;;;;5046602;28;22523;-51
2021/08/10 10:42:26;;;;;;;0.85;0.43;;;26.60;51.90;;;;;;5038498;28;20037;-53
2021/08/10 10:44:53;;;;;;;1.15;0.57;;;26.60;51.90;;;;;;5035309;28;20045;-49
2021/08/10 10:47:34;;;;;;;4.10;0.20;;;26.60;51.90;;;;;;5034508;28;20041;-52
2021/08/10 10:50:18;;;;;;;0.93;0.70;;;26.70;51.90;;;;;;5031534;28;20049;-51
2021/08/10 10:53:08;;;;;;;1.13;0.32;;;26.70;51.90;;;;;;5030412;28;20051;-50
2021/08/10 10:55:39;;;;;;;2.95;0.50;;;26.70;51.80;;;;;;5044271;28;20110;-54
2021/08/10 10:58:31;;;;;;;2.45;0.30;;;26.70;52.50;;;;;;5031721;28;20072;-52
2021/08/10 11:01:19;;;;;;;7.43;0.60;;;26.70;51.80;;;;;;5045947;28;20147;-49
2021/08/10 11:04:09;;;;;;;6.35;1.10;;;26.80;51.80;;;;;;5034716;28;20053;-50
2021/08/10 11:06:39;;;;;;;3.85;0.75;;;26.80;51.80;;;;;;5034383;28;20096;-50
2021/08/10 11:09:08;;;;;;;1.42;0.63;;;26.80;51.90;;;;;;5039676;28;20045;-49
2021/08/10 11:11:48;;;;;;;3.30;0.20;;;26.80;51.80;;;;;;5045705;28;20040;-53
2021/08/10 11:14:56;;;;;;;3.15;0.50;;;26.80;51.80;;;;;;5041987;28;20033;-50
2021/08/10 11:17:23;;;;;;;;;;;26.90;51.80;;;;;;5044907;28;20784;-53
2021/08/10 11:19:52;;;;;;;6.65;0.47;;;26.80;51.80;;;;;;5029266;28;20673;-51
2021/08/10 11:22:27;;;;;;;7.72;0.40;;;26.80;51.90;;;;;;5046964;28;20124;-50
2021/08/10 11:25:00;;;;;;;2.80;0.38;;;26.90;51.90;;;;;;5033095;28;20061;-50
2021/08/10 11:27:35;;;;;;;2.42;0.40;;;26.90;51.80;;;;;;5042450;28;20045;-50
2021/08/10 11:30:05;;;;;;;2.75;0.20;;;26.90;51.80;;;;;;5045662;28;20048;-48
2021/08/10 11:32:41;;;;;;;4.88;0.50;;;26.90;51.70;;;;;;5045029;28;20098;-54
2021/08/10 11:35:26;;;;;;;;;;;26.90;51.70;;;;;;5032254;28;20041;-51
2021/08/10 11:38:15;;;;;;;6.60;0.95;;;26.90;51.60;;;;;;5030372;28;19920;-52
2021/08/10 11:41:04;;;;;;;2.35;0.20;;;26.90;51.70;;;;;;5044065;28;20140;-55
2021/08/10 11:43:38;;;;;;;1.33;0.30;;;27.00;51.60;;;;;;5040196;28;20060;-53
2021/08/10 11:46:06;;;;;;;5.53;0.85;;;27.00;51.60;;;;;;5044886;28;20136;-55
2021/08/10 11:48:45;;;;;;;2.13;0.43;;;27.00;51.50;;;;;;5045537;28;20041;-52
2021/08/10 11:51:23;;;;;;;0.95;0.10;;;27.10;51.50;;;;;;5045372;28;20052;-50
2021/08/10 11:53:52;;;;;;;1.95;0.50;;;27.10;51.40;;;;;;5045565;28;20068;-50
2021/08/10 11:56:28;;;;;;;2.20;0.10;;;27.10;51.30;;;;;;5045771;28;20037;-52
2021/08/10 11:58:58;;;;;;;2.17;0.50;;;27.20;51.30;;;;;;5030479;28;20116;-50
2021/08/10 12:01:28;;;;;;;0.93;0.28;;;27.10;51.20;;;;;;5042204;28;20059;-50
2021/08/10 12:04:08;;;;;;;3.67;0.75;;;27.20;51.20;;;;;;5034189;28;20041;-54
2021/08/10 12:06:36;;;;;;;1.85;1.05;;;27.20;51.10;;;;;;5032716;28;20136;-49
2021/08/10 12:09:05;;;;;;;2.45;0.15;;;27.20;51.10;;;;;;5039034;28;20056;-52
2021/08/10 12:11:32;;;;;;;3.17;0.68;;;27.20;51.10;;;;;;5045487;28;20071;-54
2021/08/10 12:14:13;;;;;;;0.40;0.20;;;27.30;51.10;;;;;;5045620;28;20446;-52
2021/08/10 12:16:57;;;;;;;2.03;0.10;;;27.30;51.00;;;;;;5048822;28;20045;-50
2021/08/10 12:19:31;;;;;;;1.00;0.57;;;27.30;50.90;;;;;;5046193;28;20114;-52
2021/08/10 12:21:59;;;;;;;4.80;0.60;;;27.30;50.90;;;;;;5048881;28;20072;-52
2021/08/10 12:24:27;;;;;;;4.72;0.20;;;27.30;50.80;;;;;;5048582;28;20414;-53
2021/08/10 12:26:55;;;;;;;1.95;1.00;;;27.30;50.70;;;;;;5048915;28;20044;-50
2021/08/10 12:29:34;;;;;;;0.60;0.30;;;27.30;50.60;;;;;;5049007;28;20056;-54
2021/08/10 12:32:01;;;;;;;4.57;0.20;;;27.40;50.60;;;;;;5033439;28;20048;-52
2021/08/10 12:34:30;;;;;;;3.00;0.13;;;27.40;50.60;;;;;;5049239;28;20059;-48
2021/08/10 12:36:57;;;;;;;0.50;0.20;;;27.40;50.60;;;;;;5048456;28;20048;-53
2021/08/10 12:39:25;;;;;;;2.40;0.22;;;27.50;50.70;;;;;;5048987;28;20033;-53
2021/08/10 12:41:52;;;;;;;0.30;0.10;;;27.50;50.60;;;;;;5048227;28;20124;-51
2021/08/10 12:44:24;;;;;;;1.75;0.10;;;27.50;50.60;;;;;;5048999;28;20553;-54
2021/08/10 12:46:56;;;;;;;2.15;0.30;;;27.60;50.60;;;;;;5048653;28;20041;-53
2021/08/10 12:49:36;;;;;;;1.25;0.20;;;27.60;50.50;;;;;;5045747;28;20072;-54
2021/08/10 12:52:05;;;;;;;0.38;0.20;;;27.60;50.30;;;;;;5049053;28;20400;-54
2021/08/10 12:54:35;;;;;;;0.70;0.20;;;27.60;50.30;;;;;;5048345;28;20072;-53
2021/08/10 12:57:02;;;;;;;2.88;0.90;;;27.60;50.20;;;;;;5048374;28;20055;-50
2021/08/10 12:59:45;;;;;;;5.03;0.50;;;27.60;50.20;;;;;;5048480;28;20045;-52
2021/08/10 13:02:13;;;;;;;1.08;0.32;;;27.70;50.10;;;;;;5048422;28;20517;-52
2021/08/10 13:04:57;;;;;;;0.50;0.50;;;27.60;50.00;;;;;;5030980;28;20247;-52
2021/08/10 13:07:24;;;;;;;3.22;1.00;;;27.70;50.00;;;;;;5032548;28;20048;-51